createdAt,value
2022-08-25T00:00:48.437Z,21.38
2022-08-25T00:01:48.430Z,21.38
2022-08-25T00:02:55.950Z,21.38
2022-08-25T00:03:48.419Z,21.30
2022-08-25T00:04:53.674Z,21.36
2022-08-25T00:05:48.480Z,21.31
2022-08-25T00:06:48.406Z,21.36
2022-08-25T00:07:48.403Z,21.42
2022-08-25T00:08:48.397Z,21.40
2022-08-25T00:09:48.398Z,21.42
2022-08-25T00:10:59.854Z,21.31
2022-08-25T00:11:48.376Z,21.27
2022-08-25T00:12:48.373Z,21.38
2022-08-25T00:13:48.364Z,21.26
2022-08-25T00:14:48.365Z,21.19
2022-08-25T00:15:48.425Z,21.19
2022-08-25T00:16:48.358Z,21.16
2022-08-25T00:17:48.346Z,21.13
2022-08-25T00:18:48.345Z,21.01
2022-08-25T00:19:48.331Z,21.00
2022-08-25T00:20:48.886Z,20.97
2022-08-25T00:21:48.325Z,20.93
2022-08-25T00:22:48.325Z,20.85
2022-08-25T00:23:48.310Z,20.96
2022-08-25T00:24:48.305Z,20.96
2022-08-25T00:25:48.299Z,20.93
2022-08-25T00:26:48.295Z,20.96
2022-08-25T00:27:48.288Z,20.93
2022-08-25T00:28:48.283Z,20.88
2022-08-25T00:29:48.276Z,20.83
2022-08-25T00:30:48.374Z,20.78
2022-08-25T00:31:48.265Z,20.85
2022-08-25T00:32:55.183Z,20.76
2022-08-25T00:33:48.254Z,20.75
2022-08-25T00:34:48.253Z,20.75
2022-08-25T00:35:48.242Z,20.63
2022-08-25T00:36:48.236Z,20.71
2022-08-25T00:37:48.230Z,20.72
2022-08-25T00:38:48.225Z,20.61
2022-08-25T00:39:48.322Z,20.63
2022-08-25T00:40:48.214Z,20.68
2022-08-25T00:41:48.207Z,20.66
2022-08-25T00:42:48.201Z,20.61
2022-08-25T00:43:48.194Z,20.60
2022-08-25T00:44:48.191Z,20.50
2022-08-25T00:45:48.418Z,20.57
2022-08-25T00:46:48.179Z,20.53
2022-08-25T00:47:48.170Z,20.51
2022-08-25T00:48:48.177Z,20.51
2022-08-25T00:49:48.159Z,20.46
2022-08-25T00:50:48.155Z,20.42
2022-08-25T00:51:48.146Z,20.42
2022-08-25T00:52:48.142Z,20.41
2022-08-25T00:53:48.136Z,20.34
2022-08-25T00:54:48.131Z,20.34
2022-08-25T00:55:48.123Z,20.34
2022-08-25T00:56:48.120Z,20.27
2022-08-25T00:57:48.112Z,20.25
2022-08-25T00:58:48.112Z,20.19
2022-08-25T00:59:48.106Z,20.30
2022-08-25T01:00:48.097Z,20.35
2022-08-25T01:01:48.197Z,20.27
2022-08-25T01:02:48.148Z,20.26
2022-08-25T01:03:48.076Z,20.27
2022-08-25T01:04:49.062Z,20.26
2022-08-25T01:05:48.065Z,20.26
2022-08-25T01:06:48.060Z,20.26
2022-08-25T01:07:48.058Z,20.19
2022-08-25T01:08:48.048Z,20.19
2022-08-25T01:09:48.048Z,20.13
2022-08-25T01:10:48.038Z,20.17
2022-08-25T01:11:48.028Z,20.13
2022-08-25T01:12:48.023Z,20.19
2022-08-25T01:13:48.017Z,20.19
2022-08-25T01:14:48.013Z,20.15
2022-08-25T01:15:48.072Z,20.12
2022-08-25T01:16:51.266Z,20.19
2022-08-25T01:17:47.992Z,20.15
2022-08-25T01:18:48.000Z,20.12
2022-08-25T01:19:47.979Z,20.12
2022-08-25T01:20:47.974Z,20.13
2022-08-25T01:21:47.966Z,20.08
2022-08-25T01:22:55.331Z,20.05
2022-08-25T01:23:47.956Z,20.02
2022-08-25T01:24:47.950Z,19.89
2022-08-25T01:25:47.944Z,19.87
2022-08-25T01:26:47.937Z,19.92
2022-08-25T01:27:47.931Z,19.90
2022-08-25T01:28:47.926Z,19.90
2022-08-25T01:29:47.922Z,19.94
2022-08-25T01:30:47.961Z,19.97
2022-08-25T01:31:47.905Z,19.85
2022-08-25T01:32:47.900Z,19.89
2022-08-25T01:33:47.893Z,19.79
2022-08-25T01:34:47.889Z,19.85
2022-08-25T01:35:47.882Z,19.87
2022-08-25T01:36:47.877Z,19.89
2022-08-25T01:37:47.871Z,19.94
2022-08-25T01:38:47.863Z,19.94
2022-08-25T01:39:47.983Z,19.90
2022-08-25T01:40:47.853Z,19.87
2022-08-25T01:41:47.844Z,19.87
2022-08-25T01:42:47.840Z,19.83
2022-08-25T01:43:47.832Z,19.82
2022-08-25T01:44:47.826Z,19.83
2022-08-25T01:45:48.051Z,19.87
2022-08-25T01:46:47.814Z,19.85
2022-08-25T01:47:47.803Z,19.76
2022-08-25T01:48:47.802Z,19.75
2022-08-25T01:49:47.792Z,19.76
2022-08-25T01:50:47.788Z,19.76
2022-08-25T01:51:47.779Z,19.72
2022-08-25T01:52:47.774Z,19.80
2022-08-25T01:53:47.768Z,19.76
2022-08-25T01:54:47.962Z,19.79
2022-08-25T01:55:47.753Z,19.75
2022-08-25T01:56:47.748Z,19.70
2022-08-25T01:57:47.739Z,19.71
2022-08-25T01:58:47.736Z,19.67
2022-08-25T01:59:47.727Z,19.67
2022-08-25T02:00:47.723Z,19.64
2022-08-25T02:01:47.744Z,19.64
2022-08-25T02:02:47.734Z,19.65
2022-08-25T02:03:48.035Z,19.60
2022-08-25T02:04:47.699Z,19.62
2022-08-25T02:05:48.047Z,19.58
2022-08-25T02:06:47.684Z,19.49
2022-08-25T02:07:47.674Z,19.50
2022-08-25T02:08:47.672Z,19.53
2022-08-25T02:09:47.712Z,19.40
2022-08-25T02:10:47.658Z,19.46
2022-08-25T02:11:47.649Z,19.39
2022-08-25T02:12:47.646Z,19.32
2022-08-25T02:13:47.637Z,19.39
2022-08-25T02:14:47.632Z,19.31
2022-08-25T02:15:47.630Z,19.28
2022-08-25T02:16:47.745Z,19.31
2022-08-25T02:17:47.612Z,19.31
2022-08-25T02:18:47.604Z,19.13
2022-08-25T02:19:47.598Z,19.24
2022-08-25T02:20:47.591Z,19.20
2022-08-25T02:21:47.584Z,19.23
2022-08-25T02:22:48.991Z,19.27
2022-08-25T02:23:47.570Z,19.23
2022-08-25T02:24:47.567Z,19.25
2022-08-25T02:25:47.557Z,19.23
2022-08-25T02:26:47.552Z,19.30
2022-08-25T02:27:47.544Z,19.27
2022-08-25T02:28:47.539Z,19.31
2022-08-25T02:29:47.530Z,19.27
2022-08-25T02:30:47.569Z,19.17
2022-08-25T02:31:47.516Z,19.13
2022-08-25T02:32:47.519Z,19.12
2022-08-25T02:33:47.505Z,19.10
2022-08-25T02:34:47.498Z,19.07
2022-08-25T02:35:47.493Z,19.07
2022-08-25T02:36:47.486Z,19.10
2022-08-25T02:37:47.477Z,19.01
2022-08-25T02:38:47.470Z,19.09
2022-08-25T02:39:47.510Z,19.05
2022-08-25T02:40:47.458Z,19.10
2022-08-25T02:41:47.449Z,19.15
2022-08-25T02:42:47.444Z,19.09
2022-08-25T02:43:47.436Z,19.15
2022-08-25T02:44:47.430Z,19.05
2022-08-25T02:45:47.530Z,19.13
2022-08-25T02:46:47.418Z,19.15
2022-08-25T02:47:47.408Z,19.01
2022-08-25T02:48:47.404Z,19.16
2022-08-25T02:49:47.394Z,19.06
2022-08-25T02:50:47.402Z,19.07
2022-08-25T02:51:47.381Z,19.02
2022-08-25T02:52:47.376Z,19.02
2022-08-25T02:53:47.366Z,19.05
2022-08-25T02:54:47.363Z,19.05
2022-08-25T02:55:47.355Z,18.91
2022-08-25T02:56:47.347Z,19.02
2022-08-25T02:57:47.340Z,19.02
2022-08-25T02:58:47.340Z,18.91
2022-08-25T02:59:47.328Z,18.91
2022-08-25T03:00:47.394Z,18.91
2022-08-25T03:01:47.312Z,18.90
2022-08-25T03:02:47.306Z,18.90
2022-08-25T03:03:47.406Z,18.87
2022-08-25T03:04:47.473Z,18.86
2022-08-25T03:05:47.284Z,18.89
2022-08-25T03:06:47.282Z,18.86
2022-08-25T03:07:47.269Z,18.96
2022-08-25T03:08:47.275Z,18.90
2022-08-25T03:09:47.257Z,18.91
2022-08-25T03:10:47.404Z,18.91
2022-08-25T03:11:47.242Z,19.01
2022-08-25T03:12:47.286Z,18.96
2022-08-25T03:13:47.228Z,18.99
2022-08-25T03:14:47.223Z,18.93
2022-08-25T03:15:47.313Z,18.86
2022-08-25T03:16:47.282Z,18.79
2022-08-25T03:17:47.200Z,18.83
2022-08-25T03:18:47.194Z,18.75
2022-08-25T03:19:47.184Z,18.84
2022-08-25T03:20:47.181Z,18.78
2022-08-25T03:21:47.171Z,18.74
2022-08-25T03:22:47.165Z,18.59
2022-08-25T03:23:47.156Z,18.69
2022-08-25T03:24:47.152Z,18.59
2022-08-25T03:25:47.145Z,18.66
2022-08-25T03:26:47.147Z,18.62
2022-08-25T03:27:47.127Z,18.59
2022-08-25T03:28:47.131Z,18.51
2022-08-25T03:29:47.120Z,18.53
2022-08-25T03:30:47.114Z,18.59
2022-08-25T03:31:47.181Z,18.51
2022-08-25T03:32:47.094Z,18.51
2022-08-25T03:33:47.086Z,18.51
2022-08-25T03:34:47.079Z,18.56
2022-08-25T03:35:47.070Z,18.57
2022-08-25T03:36:47.066Z,18.57
2022-08-25T03:37:47.058Z,18.57
2022-08-25T03:38:47.052Z,18.62
2022-08-25T03:39:47.083Z,18.66
2022-08-25T03:40:47.037Z,18.57
2022-08-25T03:41:47.027Z,18.60
2022-08-25T03:42:47.021Z,18.59
2022-08-25T03:43:48.174Z,18.56
2022-08-25T03:44:47.009Z,18.51
2022-08-25T03:45:47.060Z,18.51
2022-08-25T03:46:46.992Z,18.60
2022-08-25T03:47:46.983Z,18.59
2022-08-25T03:48:46.979Z,18.49
2022-08-25T03:49:46.975Z,18.50
2022-08-25T03:50:51.577Z,18.49
2022-08-25T03:51:46.963Z,18.54
2022-08-25T03:52:46.950Z,18.56
2022-08-25T03:53:46.944Z,18.50
2022-08-25T03:54:46.935Z,18.47
2022-08-25T03:55:46.926Z,18.51
2022-08-25T03:56:46.922Z,18.49
2022-08-25T03:57:46.911Z,18.60
2022-08-25T03:58:46.907Z,18.59
2022-08-25T03:59:46.897Z,18.54
2022-08-25T04:00:46.977Z,18.53
2022-08-25T04:01:50.253Z,18.51
2022-08-25T04:02:46.955Z,18.53
2022-08-25T04:03:46.868Z,18.50
2022-08-25T04:04:46.862Z,18.46
2022-08-25T04:05:46.855Z,18.50
2022-08-25T04:06:46.847Z,18.35
2022-08-25T04:07:46.838Z,18.44
2022-08-25T04:08:46.935Z,18.46
2022-08-25T04:09:46.825Z,18.39
2022-08-25T04:10:46.819Z,18.44
2022-08-25T04:11:46.810Z,18.44
2022-08-25T04:12:46.806Z,18.42
2022-08-25T04:13:46.803Z,18.44
2022-08-25T04:14:46.840Z,18.46
2022-08-25T04:15:46.781Z,18.44
2022-08-25T04:16:46.911Z,18.44
2022-08-25T04:17:46.770Z,18.44
2022-08-25T04:18:46.759Z,18.42
2022-08-25T04:19:46.753Z,18.42
2022-08-25T04:20:47.045Z,18.42
2022-08-25T04:21:46.743Z,18.42
2022-08-25T04:22:46.728Z,18.23
2022-08-25T04:23:46.724Z,18.35
2022-08-25T04:24:46.714Z,18.31
2022-08-25T04:25:46.710Z,18.29
2022-08-25T04:26:46.699Z,18.23
2022-08-25T04:27:46.695Z,18.26
2022-08-25T04:28:46.685Z,18.32
2022-08-25T04:29:46.681Z,18.26
2022-08-25T04:30:51.427Z,18.32
2022-08-25T04:31:46.742Z,18.34
2022-08-25T04:32:46.757Z,18.32
2022-08-25T04:33:46.651Z,18.31
2022-08-25T04:34:46.640Z,18.35
2022-08-25T04:35:46.636Z,18.32
2022-08-25T04:36:46.626Z,18.23
2022-08-25T04:37:46.623Z,18.31
2022-08-25T04:38:46.612Z,18.31
2022-08-25T04:39:46.689Z,18.34
2022-08-25T04:40:46.597Z,18.31
2022-08-25T04:41:46.593Z,18.25
2022-08-25T04:42:48.212Z,18.31
2022-08-25T04:43:46.577Z,18.26
2022-08-25T04:44:46.568Z,18.29
2022-08-25T04:45:46.633Z,18.28
2022-08-25T04:46:46.555Z,18.31
2022-08-25T04:47:46.548Z,18.34
2022-08-25T04:48:46.539Z,18.28
2022-08-25T04:49:46.533Z,18.34
2022-08-25T04:50:46.527Z,18.32
2022-08-25T04:51:46.518Z,18.31
2022-08-25T04:52:46.509Z,18.29
2022-08-25T04:53:46.504Z,18.31
2022-08-25T04:54:46.492Z,18.28
2022-08-25T04:55:46.489Z,18.29
2022-08-25T04:56:46.482Z,18.26
2022-08-25T04:57:46.475Z,18.29
2022-08-25T04:58:46.464Z,18.25
2022-08-25T04:59:46.459Z,18.26
2022-08-25T05:00:46.498Z,18.35
2022-08-25T05:01:46.444Z,18.25
2022-08-25T05:02:46.434Z,18.28
2022-08-25T05:03:46.487Z,18.29
2022-08-25T05:04:46.449Z,18.31
2022-08-25T05:05:46.415Z,18.34
2022-08-25T05:06:46.409Z,18.34
2022-08-25T05:07:46.400Z,18.32
2022-08-25T05:08:46.393Z,18.51
2022-08-25T05:09:46.386Z,18.72
2022-08-25T05:10:46.376Z,18.99
2022-08-25T05:11:46.370Z,19.10
2022-08-25T05:12:46.360Z,19.24
2022-08-25T05:13:51.345Z,19.42
2022-08-25T05:14:46.347Z,19.58
2022-08-25T05:15:46.341Z,19.62
2022-08-25T05:16:46.379Z,19.76
2022-08-25T05:17:46.330Z,19.83
2022-08-25T05:18:46.317Z,19.92
2022-08-25T05:19:46.314Z,19.89
2022-08-25T05:20:46.304Z,20.04
2022-08-25T05:21:46.303Z,20.15
2022-08-25T05:22:46.292Z,20.25
2022-08-25T05:23:46.300Z,20.33
2022-08-25T05:24:46.276Z,20.40
2022-08-25T05:25:46.272Z,20.50
2022-08-25T05:26:46.262Z,20.50
2022-08-25T05:27:46.258Z,20.61
2022-08-25T05:28:46.250Z,20.73
2022-08-25T05:29:46.246Z,20.85
2022-08-25T05:30:46.285Z,20.94
2022-08-25T05:31:50.437Z,20.97
2022-08-25T05:32:46.224Z,21.01
2022-08-25T05:33:46.221Z,21.11
2022-08-25T05:34:46.210Z,21.12
2022-08-25T05:35:46.256Z,21.18
2022-08-25T05:36:46.199Z,21.33
2022-08-25T05:37:46.196Z,21.31
2022-08-25T05:38:46.185Z,21.30
2022-08-25T05:39:46.199Z,21.33
2022-08-25T05:40:46.173Z,21.33
2022-08-25T05:41:46.178Z,21.42
2022-08-25T05:42:46.163Z,21.36
2022-08-25T05:43:46.159Z,21.40
2022-08-25T05:44:46.150Z,21.45
2022-08-25T05:45:46.179Z,21.53
2022-08-25T05:46:46.138Z,21.51
2022-08-25T05:47:46.135Z,21.55
2022-08-25T05:48:46.125Z,21.58
2022-08-25T05:49:46.123Z,21.64
2022-08-25T05:50:46.115Z,21.73
2022-08-25T05:51:46.114Z,21.77
2022-08-25T05:52:46.104Z,21.71
2022-08-25T05:53:46.102Z,21.86
2022-08-25T05:54:46.093Z,21.83
2022-08-25T05:55:46.088Z,21.91
2022-08-25T05:56:46.083Z,21.98
2022-08-25T05:57:46.079Z,22.01
2022-08-25T05:58:46.070Z,21.91
2022-08-25T05:59:46.068Z,22.04
2022-08-25T06:00:46.128Z,22.01
2022-08-25T06:01:46.056Z,22.05
2022-08-25T06:02:46.049Z,22.04
2022-08-25T06:03:46.068Z,22.06
2022-08-25T06:04:46.041Z,22.08
2022-08-25T06:05:46.037Z,22.12
2022-08-25T06:06:46.030Z,22.17
2022-08-25T06:07:46.025Z,22.20
2022-08-25T06:08:46.023Z,22.20
2022-08-25T06:09:46.018Z,22.20
2022-08-25T06:10:46.008Z,22.33
2022-08-25T06:11:46.006Z,22.33
2022-08-25T06:12:45.999Z,22.42
2022-08-25T06:13:45.996Z,22.36
2022-08-25T06:14:45.988Z,22.39
2022-08-25T06:15:45.987Z,22.51
2022-08-25T06:16:46.027Z,22.51
2022-08-25T06:17:45.977Z,22.49
2022-08-25T06:18:45.969Z,22.51
2022-08-25T06:19:45.967Z,22.48
2022-08-25T06:20:45.961Z,22.54
2022-08-25T06:21:45.959Z,22.61
2022-08-25T06:22:46.000Z,22.61
2022-08-25T06:23:45.948Z,22.69
2022-08-25T06:24:45.941Z,22.69
2022-08-25T06:25:45.938Z,22.79
2022-08-25T06:26:45.930Z,22.82
2022-08-25T06:27:45.929Z,22.88
2022-08-25T06:28:45.924Z,22.93
2022-08-25T06:29:46.126Z,22.91
2022-08-25T06:30:45.914Z,22.91
2022-08-25T06:31:46.052Z,22.97
2022-08-25T06:32:45.906Z,22.99
2022-08-25T06:33:45.903Z,23.14
2022-08-25T06:34:45.900Z,23.09
2022-08-25T06:35:45.893Z,23.25
2022-08-25T06:36:45.888Z,23.15
2022-08-25T06:37:45.886Z,23.23
2022-08-25T06:38:45.878Z,23.21
2022-08-25T06:39:45.940Z,23.29
2022-08-25T06:40:45.871Z,23.34
2022-08-25T06:41:45.870Z,23.35
2022-08-25T06:42:45.912Z,23.41
2022-08-25T06:43:49.883Z,23.38
2022-08-25T06:44:45.854Z,23.42
2022-08-25T06:45:45.852Z,23.44
2022-08-25T06:46:45.969Z,23.59
2022-08-25T06:47:45.850Z,23.62
2022-08-25T06:48:45.837Z,23.62
2022-08-25T06:49:45.853Z,23.63
2022-08-25T06:50:45.830Z,23.64
2022-08-25T06:51:45.844Z,23.74
2022-08-25T06:52:45.822Z,23.72
2022-08-25T06:53:45.821Z,23.81
2022-08-25T06:54:45.814Z,23.72
2022-08-25T06:55:45.812Z,23.84
2022-08-25T06:56:45.807Z,23.87
2022-08-25T06:57:45.807Z,23.90
2022-08-25T06:58:45.800Z,23.92
2022-08-25T06:59:45.799Z,24.02
2022-08-25T07:00:45.856Z,24.04
2022-08-25T07:01:45.841Z,24.11
2022-08-25T07:02:45.796Z,24.16
2022-08-25T07:03:45.787Z,24.19
2022-08-25T07:04:45.778Z,24.14
2022-08-25T07:05:45.776Z,24.29
2022-08-25T07:06:45.770Z,24.30
2022-08-25T07:07:45.769Z,24.37
2022-08-25T07:08:45.764Z,24.39
2022-08-25T07:09:45.765Z,24.37
2022-08-25T07:10:48.116Z,24.26
2022-08-25T07:11:45.766Z,24.21
2022-08-25T07:12:45.750Z,24.23
2022-08-25T07:13:45.750Z,24.12
2022-08-25T07:14:58.033Z,24.12
2022-08-25T07:15:45.795Z,24.08
2022-08-25T07:16:49.369Z,24.15
2022-08-25T07:17:45.737Z,24.14
2022-08-25T07:18:45.731Z,24.14
2022-08-25T07:19:45.731Z,24.19
2022-08-25T07:20:45.725Z,24.08
2022-08-25T07:21:45.740Z,24.14
2022-08-25T07:22:45.717Z,24.18
2022-08-25T07:23:45.715Z,24.19
2022-08-25T07:24:45.711Z,24.19
2022-08-25T07:25:45.759Z,24.30
2022-08-25T07:26:45.702Z,24.21
2022-08-25T07:27:45.703Z,24.31
2022-08-25T07:28:47.225Z,24.33
2022-08-25T07:29:45.697Z,24.46
2022-08-25T07:30:45.690Z,24.45
2022-08-25T07:31:45.731Z,24.55
2022-08-25T07:32:45.685Z,24.67
2022-08-25T07:33:45.684Z,24.71
2022-08-25T07:34:45.680Z,24.80
2022-08-25T07:35:45.678Z,24.93
2022-08-25T07:36:45.673Z,24.98
2022-08-25T07:37:49.259Z,25.04
2022-08-25T07:38:45.665Z,25.08
2022-08-25T07:39:45.716Z,25.07
2022-08-25T07:40:45.659Z,25.24
2022-08-25T07:41:45.659Z,25.23
2022-08-25T07:42:45.972Z,25.23
2022-08-25T07:43:45.651Z,25.34
2022-08-25T07:44:45.649Z,25.41
2022-08-25T07:45:49.147Z,25.39
2022-08-25T07:47:45.639Z,25.48
2022-08-25T07:48:53.281Z,25.51
2022-08-25T07:49:45.636Z,25.53
2022-08-25T07:50:45.633Z,25.59
2022-08-25T07:52:03.975Z,25.63
2022-08-25T07:52:45.629Z,25.74
2022-08-25T07:53:45.623Z,25.75
2022-08-25T07:54:45.623Z,25.72
2022-08-25T07:55:47.291Z,25.71
2022-08-25T07:56:45.619Z,25.71
2022-08-25T07:57:45.613Z,25.72
2022-08-25T07:58:45.612Z,25.66
2022-08-25T07:59:45.609Z,25.72
2022-08-25T08:00:45.610Z,25.86
2022-08-25T08:01:45.691Z,25.83
2022-08-25T08:02:45.651Z,25.94
2022-08-25T08:03:50.680Z,25.97
2022-08-25T08:04:45.599Z,26.00
2022-08-25T08:05:45.595Z,26.06
2022-08-25T08:06:45.610Z,26.13
2022-08-25T08:07:45.590Z,26.20
2022-08-25T08:08:45.590Z,26.16
2022-08-25T08:09:45.586Z,26.28
2022-08-25T08:11:04.365Z,26.31
2022-08-25T08:11:45.782Z,26.28
2022-08-25T08:12:45.600Z,26.29
2022-08-25T08:13:45.579Z,26.31
2022-08-25T08:14:46.210Z,26.35
2022-08-25T08:15:45.602Z,26.39
2022-08-25T08:16:45.574Z,26.38
2022-08-25T08:17:45.571Z,26.47
2022-08-25T08:18:45.570Z,26.41
2022-08-25T08:19:45.566Z,26.51
2022-08-25T08:20:45.569Z,26.54
2022-08-25T08:21:45.564Z,26.51
2022-08-25T08:22:45.562Z,26.57
2022-08-25T08:23:45.559Z,26.57
2022-08-25T08:24:54.787Z,26.54
2022-08-25T08:25:45.554Z,26.68
2022-08-25T08:26:57.718Z,26.71
2022-08-25T08:27:45.557Z,26.72
2022-08-25T08:28:45.652Z,26.76
2022-08-25T08:29:45.555Z,26.75
2022-08-25T08:30:53.635Z,26.71
2022-08-25T08:31:48.542Z,26.78
2022-08-25T08:33:08.842Z,26.72
2022-08-25T08:33:45.545Z,26.73
2022-08-25T08:34:45.592Z,26.71
2022-08-25T08:35:45.540Z,26.76
2022-08-25T08:36:45.607Z,26.84
2022-08-25T08:37:45.537Z,26.76
2022-08-25T08:38:45.534Z,26.75
2022-08-25T08:39:45.608Z,26.84
2022-08-25T08:40:45.530Z,26.88
2022-08-25T08:42:11.200Z,26.98
2022-08-25T08:42:46.936Z,27.08
2022-08-25T08:43:45.529Z,27.13
2022-08-25T08:44:45.534Z,27.11
2022-08-25T08:45:45.526Z,27.09
2022-08-25T08:46:45.559Z,27.01
2022-08-25T08:47:45.530Z,27.05
2022-08-25T08:48:45.519Z,27.11
2022-08-25T08:49:45.520Z,27.08
2022-08-25T08:50:45.515Z,27.11
2022-08-25T08:51:45.905Z,26.98
2022-08-25T08:52:45.538Z,27.08
2022-08-25T08:53:45.527Z,27.05
2022-08-25T08:54:45.536Z,27.13
2022-08-25T08:55:50.538Z,27.21
2022-08-25T08:56:48.038Z,27.30
2022-08-25T08:57:45.571Z,27.25
2022-08-25T08:58:45.507Z,27.30
2022-08-25T08:59:45.524Z,27.34
2022-08-25T09:00:51.840Z,27.50
2022-08-25T09:01:45.681Z,27.40
2022-08-25T09:02:51.946Z,27.59
2022-08-25T09:03:45.515Z,27.55
2022-08-25T09:04:45.509Z,27.59
2022-08-25T09:05:46.827Z,27.62
2022-08-25T09:06:45.495Z,27.72
2022-08-25T09:07:45.496Z,27.72
2022-08-25T09:08:45.494Z,27.74
2022-08-25T09:09:45.496Z,27.63
2022-08-25T09:10:45.491Z,27.80
2022-08-25T09:11:45.492Z,27.88
2022-08-25T09:12:48.218Z,27.78
2022-08-25T09:13:45.513Z,27.78
2022-08-25T09:14:45.489Z,27.74
2022-08-25T09:15:45.501Z,27.74
2022-08-25T09:16:45.533Z,27.72
2022-08-25T09:17:45.485Z,27.87
2022-08-25T09:18:50.886Z,27.78
2022-08-25T09:19:45.488Z,27.68
2022-08-25T09:20:45.481Z,27.74
2022-08-25T09:21:45.482Z,27.68
2022-08-25T09:22:46.768Z,27.71
2022-08-25T09:23:45.481Z,27.72
2022-08-25T09:24:45.478Z,27.71
2022-08-25T09:25:54.050Z,27.65
2022-08-25T09:26:45.475Z,27.71
2022-08-25T09:27:45.477Z,27.71
2022-08-25T09:28:45.474Z,27.69
2022-08-25T09:29:45.476Z,27.76
2022-08-25T09:30:45.477Z,27.84
2022-08-25T09:31:45.566Z,27.86
2022-08-25T09:32:49.041Z,27.86
2022-08-25T09:33:45.473Z,27.87
2022-08-25T09:34:45.469Z,27.87
2022-08-25T09:35:45.471Z,27.98
2022-08-25T09:36:45.483Z,28.03
2022-08-25T09:37:45.520Z,27.99
2022-08-25T09:38:45.467Z,28.11
2022-08-25T09:39:45.535Z,28.08
2022-08-25T09:40:45.465Z,28.11
2022-08-25T09:41:45.466Z,28.24
2022-08-25T09:42:45.477Z,28.18
2022-08-25T09:43:45.464Z,28.23
2022-08-25T09:44:45.463Z,28.24
2022-08-25T09:45:45.464Z,28.23
2022-08-25T09:46:45.543Z,28.24
2022-08-25T09:47:45.461Z,28.33
2022-08-25T09:48:45.459Z,28.25
2022-08-25T09:49:45.462Z,28.24
2022-08-25T09:50:45.717Z,28.32
2022-08-25T09:51:45.460Z,28.33
2022-08-25T09:52:45.457Z,28.35
2022-08-25T09:53:45.459Z,28.30
2022-08-25T09:54:47.642Z,28.32
2022-08-25T09:55:45.456Z,28.45
2022-08-25T09:56:45.457Z,28.50
2022-08-25T09:57:45.457Z,28.58
2022-08-25T09:58:45.454Z,28.58
2022-08-25T09:59:57.463Z,28.57
2022-08-25T10:00:45.454Z,28.54
2022-08-25T10:01:45.519Z,28.64
2022-08-25T10:02:45.451Z,28.74
2022-08-25T10:03:45.454Z,28.80
2022-08-25T10:04:45.476Z,28.89
2022-08-25T10:05:45.454Z,28.97
2022-08-25T10:06:45.450Z,28.98
2022-08-25T10:07:45.452Z,29.05
2022-08-25T10:08:45.458Z,29.11
2022-08-25T10:09:45.453Z,29.10
2022-08-25T10:10:45.448Z,28.94
2022-08-25T10:11:45.451Z,28.57
2022-08-25T10:12:45.449Z,28.46
2022-08-25T10:13:45.452Z,28.52
2022-08-25T10:14:45.450Z,28.38
2022-08-25T10:15:45.488Z,28.30
2022-08-25T10:16:46.863Z,28.30
2022-08-25T10:17:45.451Z,28.43
2022-08-25T10:18:45.446Z,28.48
2022-08-25T10:19:45.449Z,28.51
2022-08-25T10:20:45.447Z,28.60
2022-08-25T10:22:45.448Z,28.73
2022-08-25T10:23:45.448Z,28.72
2022-08-25T10:24:45.447Z,28.89
2022-08-25T10:25:56.734Z,28.98
2022-08-25T10:26:45.447Z,28.95
2022-08-25T10:27:45.444Z,29.10
2022-08-25T10:28:45.448Z,29.11
2022-08-25T10:29:45.447Z,29.23
2022-08-25T10:30:45.582Z,29.30
2022-08-25T10:31:45.445Z,29.33
2022-08-25T10:32:45.496Z,29.30
2022-08-25T10:33:45.445Z,29.23
2022-08-25T10:34:45.446Z,29.33
2022-08-25T10:35:45.457Z,29.36
2022-08-25T10:36:47.186Z,29.54
2022-08-25T10:37:45.444Z,29.66
2022-08-25T10:38:45.447Z,29.63
2022-08-25T10:39:45.530Z,29.63
2022-08-25T10:40:45.519Z,29.58
2022-08-25T10:41:45.445Z,29.66
2022-08-25T10:42:45.449Z,29.66
2022-08-25T10:43:45.446Z,29.69
2022-08-25T10:44:45.451Z,29.78
2022-08-25T10:45:45.649Z,29.79
2022-08-25T10:46:45.516Z,29.74
2022-08-25T10:47:45.449Z,29.85
2022-08-25T10:48:45.449Z,29.82
2022-08-25T10:49:45.446Z,30.06
2022-08-25T10:50:45.745Z,30.06
2022-08-25T10:51:45.447Z,30.08
2022-08-25T10:52:45.456Z,30.16
2022-08-25T10:53:45.449Z,30.18
2022-08-25T10:54:45.451Z,30.18
2022-08-25T10:55:45.449Z,30.26
2022-08-25T10:56:45.453Z,30.13
2022-08-25T10:57:45.452Z,30.13
2022-08-25T10:58:45.506Z,30.11
2022-08-25T10:59:45.451Z,30.06
2022-08-25T11:00:46.534Z,30.18
2022-08-25T11:01:45.546Z,30.07
2022-08-25T11:02:45.455Z,30.06
2022-08-25T11:03:45.456Z,30.07
2022-08-25T11:04:45.528Z,30.16
2022-08-25T11:05:45.505Z,30.22
2022-08-25T11:06:45.459Z,30.30
2022-08-25T11:07:45.456Z,30.45
2022-08-25T11:08:45.461Z,30.51
2022-08-25T11:09:45.460Z,30.57
2022-08-25T11:10:45.462Z,30.61
2022-08-25T11:11:45.460Z,30.60
2022-08-25T11:12:45.467Z,30.73
2022-08-25T11:13:45.461Z,30.75
2022-08-25T11:14:45.464Z,30.70
2022-08-25T11:16:00.175Z,30.73
2022-08-25T11:16:45.524Z,30.88
2022-08-25T11:17:45.465Z,30.88
2022-08-25T11:18:45.468Z,30.82
2022-08-25T11:19:45.465Z,30.91
2022-08-25T11:20:45.470Z,30.86
2022-08-25T11:21:45.468Z,30.97
2022-08-25T11:22:45.471Z,31.01
2022-08-25T11:23:45.471Z,31.01
2022-08-25T11:24:45.475Z,31.03
2022-08-25T11:25:45.473Z,31.03
2022-08-25T11:26:45.475Z,31.04
2022-08-25T11:27:45.476Z,31.12
2022-08-25T11:28:45.479Z,31.05
2022-08-25T11:29:45.681Z,31.09
2022-08-25T11:30:46.384Z,31.15
2022-08-25T11:31:52.187Z,31.19
2022-08-25T11:32:45.485Z,31.15
2022-08-25T11:33:45.485Z,31.04
2022-08-25T11:34:45.688Z,31.19
2022-08-25T11:35:45.492Z,31.25
2022-08-25T11:36:45.805Z,31.22
2022-08-25T11:37:45.489Z,31.28
2022-08-25T11:39:45.572Z,31.35
2022-08-25T11:40:45.493Z,31.49
2022-08-25T11:41:45.497Z,31.41
2022-08-25T11:43:45.498Z,31.09
2022-08-25T11:44:53.245Z,31.04
2022-08-25T11:45:45.712Z,31.12
2022-08-25T11:46:45.504Z,31.07
2022-08-25T11:47:45.503Z,31.18
2022-08-25T11:48:45.506Z,30.93
2022-08-25T11:49:45.507Z,30.97
2022-08-25T11:50:45.530Z,30.97
2022-08-25T11:51:45.507Z,30.94
2022-08-25T11:52:45.513Z,30.90
2022-08-25T11:53:45.713Z,30.93
2022-08-25T11:54:45.712Z,30.93
2022-08-25T11:55:45.513Z,30.96
2022-08-25T11:56:45.720Z,31.01
2022-08-25T11:57:45.518Z,30.93
2022-08-25T11:58:45.522Z,30.64
2022-08-25T11:59:45.522Z,30.40
2022-08-25T12:00:45.524Z,30.34
2022-08-25T12:01:45.524Z,30.48
2022-08-25T12:02:45.528Z,30.49
2022-08-25T12:03:45.526Z,30.63
2022-08-25T12:04:45.752Z,30.72
2022-08-25T12:05:45.590Z,30.76
2022-08-25T12:06:45.531Z,30.82
2022-08-25T12:07:45.531Z,30.91
2022-08-25T12:08:45.535Z,31.01
2022-08-25T12:09:45.535Z,31.10
2022-08-25T12:10:45.535Z,31.37
2022-08-25T12:11:45.535Z,31.31
2022-08-25T12:12:45.541Z,31.04
2022-08-25T12:13:45.540Z,31.09
2022-08-25T12:14:45.675Z,31.16
2022-08-25T12:15:45.541Z,31.18
2022-08-25T12:16:45.578Z,31.22
2022-08-25T12:17:45.545Z,31.16
2022-08-25T12:18:46.318Z,31.05
2022-08-25T12:19:45.749Z,30.79
2022-08-25T12:22:45.554Z,30.83
2022-08-25T12:23:46.352Z,30.82
2022-08-25T12:24:48.020Z,30.90
2022-08-25T12:25:45.559Z,30.97
2022-08-25T12:26:46.151Z,30.98
2022-08-25T12:27:45.559Z,31.09
2022-08-25T12:28:45.562Z,31.07
2022-08-25T12:29:45.561Z,31.01
2022-08-25T12:30:45.625Z,30.91
2022-08-25T12:32:45.567Z,30.96
2022-08-25T12:33:45.770Z,31.16
2022-08-25T12:34:45.769Z,31.18
2022-08-25T12:35:45.571Z,31.34
2022-08-25T12:36:45.670Z,31.35
2022-08-25T12:37:45.574Z,31.45
2022-08-25T12:38:50.961Z,31.35
2022-08-25T12:39:45.642Z,31.20
2022-08-25T12:40:45.579Z,30.94
2022-08-25T12:41:45.630Z,31.03
2022-08-25T12:42:45.781Z,31.07
2022-08-25T12:43:45.582Z,30.98
2022-08-25T12:44:45.583Z,31.03
2022-08-25T12:45:45.634Z,31.16
2022-08-25T12:46:45.585Z,31.32
2022-08-25T12:47:45.589Z,31.16
2022-08-25T12:48:45.588Z,31.10
2022-08-25T12:49:45.591Z,31.19
2022-08-25T12:50:45.595Z,30.98
2022-08-25T12:51:48.806Z,31.03
2022-08-25T12:52:45.594Z,31.13
2022-08-25T12:53:45.597Z,31.10
2022-08-25T12:54:47.669Z,30.91
2022-08-25T12:55:45.599Z,30.90
2022-08-25T12:57:45.606Z,30.97
2022-08-25T12:58:59.971Z,30.93
2022-08-25T12:59:48.763Z,31.13
2022-08-25T13:00:45.855Z,31.19